sensor_id;sensor_type;location;lat;lon;timestamp;temperature;humidity
72646;DHT22;60687;53.876;10.674;2023-02-15T00:03:49;4.40;99.90
72646;DHT22;60687;53.876;10.674;2023-02-15T00:13:52;4.30;99.90
72646;DHT22;60687;53.876;10.674;2023-02-15T00:23:56;4.20;99.90
72646;DHT22;60687;53.876;10.674;2023-02-15T00:34:01;4.20;99.90
72646;DHT22;60687;53.876;10.674;2023-02-15T00:44:07;4.20;99.90
72646;DHT22;60687;53.876;10.674;2023-02-15T00:54:11;4.10;99.90
72646;DHT22;60687;53.876;10.674;2023-02-15T01:04:15;4.10;99.90
72646;DHT22;60687;53.876;10.674;2023-02-15T01:14:17;4.00;99.90
72646;DHT22;60687;53.876;10.674;2023-02-15T01:24:21;3.90;99.90
72646;DHT22;60687;53.876;10.674;2023-02-15T01:34:24;3.80;99.90
72646;DHT22;60687;53.876;10.674;2023-02-15T01:44:48;3.70;99.90
72646;DHT22;60687;53.876;10.674;2023-02-15T01:54:50;3.60;99.90
72646;DHT22;60687;53.876;10.674;2023-02-15T02:04:57;3.60;99.90
72646;DHT22;60687;53.876;10.674;2023-02-15T02:14:59;3.50;99.90
72646;DHT22;60687;53.876;10.674;2023-02-15T02:25:32;3.40;99.90
72646;DHT22;60687;53.876;10.674;2023-02-15T02:35:51;3.40;99.90
72646;DHT22;60687;53.876;10.674;2023-02-15T02:45:59;3.30;99.90
72646;DHT22;60687;53.876;10.674;2023-02-15T02:56:09;3.30;99.90
72646;DHT22;60687;53.876;10.674;2023-02-15T03:06:20;3.20;99.90
72646;DHT22;60687;53.876;10.674;2023-02-15T03:16:27;3.20;99.90
72646;DHT22;60687;53.876;10.674;2023-02-15T03:26:30;3.10;99.90
72646;DHT22;60687;53.876;10.674;2023-02-15T03:36:40;3.10;99.90
72646;DHT22;60687;53.876;10.674;2023-02-15T03:46:48;3.10;99.90
72646;DHT22;60687;53.876;10.674;2023-02-15T03:56:54;3.10;99.90
72646;DHT22;60687;53.876;10.674;2023-02-15T04:07:11;3.00;99.90
72646;DHT22;60687;53.876;10.674;2023-02-15T04:17:15;3.10;99.90
72646;DHT22;60687;53.876;10.674;2023-02-15T04:27:17;3.00;99.90
72646;DHT22;60687;53.876;10.674;2023-02-15T04:37:21;3.00;99.90
72646;DHT22;60687;53.876;10.674;2023-02-15T04:47:23;2.90;99.90
72646;DHT22;60687;53.876;10.674;2023-02-15T04:57:27;2.90;99.90
72646;DHT22;60687;53.876;10.674;2023-02-15T05:07:30;2.90;99.90
72646;DHT22;60687;53.876;10.674;2023-02-15T05:17:35;2.80;99.90
72646;DHT22;60687;53.876;10.674;2023-02-15T05:27:38;2.70;99.90
72646;DHT22;60687;53.876;10.674;2023-02-15T05:37:59;2.70;99.90
72646;DHT22;60687;53.876;10.674;2023-02-15T05:48:01;2.60;99.90
72646;DHT22;60687;53.876;10.674;2023-02-15T05:58:07;2.60;99.90
72646;DHT22;60687;53.876;10.674;2023-02-15T06:08:09;2.50;99.90
72646;DHT22;60687;53.876;10.674;2023-02-15T06:18:13;2.50;99.90
72646;DHT22;60687;53.876;10.674;2023-02-15T06:28:16;2.40;99.90
72646;DHT22;60687;53.876;10.674;2023-02-15T06:38:19;2.40;99.90
72646;DHT22;60687;53.876;10.674;2023-02-15T06:48:22;2.30;99.90
72646;DHT22;60687;53.876;10.674;2023-02-15T06:58:25;2.30;99.90
72646;DHT22;60687;53.876;10.674;2023-02-15T07:08:28;2.20;99.90
72646;DHT22;60687;53.876;10.674;2023-02-15T07:18:32;2.20;99.90
72646;DHT22;60687;53.876;10.674;2023-02-15T07:28:36;2.30;99.90
72646;DHT22;60687;53.876;10.674;2023-02-15T07:38:42;2.30;99.90
72646;DHT22;60687;53.876;10.674;2023-02-15T07:48:45;2.30;99.90
72646;DHT22;60687;53.876;10.674;2023-02-15T07:58:49;2.20;99.90
72646;DHT22;60687;53.876;10.674;2023-02-15T08:08:56;2.30;99.90
72646;DHT22;60687;53.876;10.674;2023-02-15T08:19:01;2.40;99.90
72646;DHT22;60687;53.876;10.674;2023-02-15T08:29:05;2.40;99.90
72646;DHT22;60687;53.876;10.674;2023-02-15T08:39:10;2.40;99.90
72646;DHT22;60687;53.876;10.674;2023-02-15T08:49:15;2.40;99.90
72646;DHT22;60687;53.876;10.674;2023-02-15T08:59:21;2.40;99.90
72646;DHT22;60687;53.876;10.674;2023-02-15T09:09:24;2.50;99.90
72646;DHT22;60687;53.876;10.674;2023-02-15T09:19:28;2.40;99.90
72646;DHT22;60687;53.876;10.674;2023-02-15T09:29:30;2.40;99.90
72646;DHT22;60687;53.876;10.674;2023-02-15T09:39:37;2.40;99.90
72646;DHT22;60687;53.876;10.674;2023-02-15T09:49:48;2.50;99.90
72646;DHT22;60687;53.876;10.674;2023-02-15T10:00:00;2.60;99.90
72646;DHT22;60687;53.876;10.674;2023-02-15T10:10:19;2.70;99.90
72646;DHT22;60687;53.876;10.674;2023-02-15T10:20:32;2.80;99.90
72646;DHT22;60687;53.876;10.674;2023-02-15T10:30:43;2.90;99.90
72646;DHT22;60687;53.876;10.674;2023-02-15T10:40:59;3.00;99.90
72646;DHT22;60687;53.876;10.674;2023-02-15T10:51:06;3.10;99.90
72646;DHT22;60687;53.876;10.674;2023-02-15T11:01:17;3.20;99.90
72646;DHT22;60687;53.876;10.674;2023-02-15T11:11:24;3.20;99.90
72646;DHT22;60687;53.876;10.674;2023-02-15T11:21:31;3.20;99.90
72646;DHT22;60687;53.876;10.674;2023-02-15T11:31:42;3.20;99.90
72646;DHT22;60687;53.876;10.674;2023-02-15T11:41:50;3.30;99.90
72646;DHT22;60687;53.876;10.674;2023-02-15T11:51:56;3.40;99.90
72646;DHT22;60687;53.876;10.674;2023-02-15T12:02:00;3.40;99.90
72646;DHT22;60687;53.876;10.674;2023-02-15T12:12:22;3.50;99.90
72646;DHT22;60687;53.876;10.674;2023-02-15T12:22:29;3.60;99.90
72646;DHT22;60687;53.876;10.674;2023-02-15T12:32:35;3.80;99.90
72646;DHT22;60687;53.876;10.674;2023-02-15T12:42:43;3.80;99.90
72646;DHT22;60687;53.876;10.674;2023-02-15T12:52:48;3.90;99.90
72646;DHT22;60687;53.876;10.674;2023-02-15T13:02:55;4.10;99.90
72646;DHT22;60687;53.876;10.674;2023-02-15T13:12:58;4.10;99.90
72646;DHT22;60687;53.876;10.674;2023-02-15T13:23:05;4.20;99.90
72646;DHT22;60687;53.876;10.674;2023-02-15T13:33:13;4.30;99.90
72646;DHT22;60687;53.876;10.674;2023-02-15T13:43:39;4.40;99.90
72646;DHT22;60687;53.876;10.674;2023-02-15T13:54:08;4.40;99.90
72646;DHT22;60687;53.876;10.674;2023-02-15T14:14:57;4.50;99.90
72646;DHT22;60687;53.876;10.674;2023-02-15T14:25:20;4.60;99.90
72646;DHT22;60687;53.876;10.674;2023-02-15T14:35:28;4.70;99.90
72646;DHT22;60687;53.876;10.674;2023-02-15T14:45:38;4.60;99.90
72646;DHT22;60687;53.876;10.674;2023-02-15T14:55:44;4.70;99.90
72646;DHT22;60687;53.876;10.674;2023-02-15T15:05:50;4.70;99.90
72646;DHT22;60687;53.876;10.674;2023-02-15T15:15:53;4.70;99.90
72646;DHT22;60687;53.876;10.674;2023-02-15T15:25:59;4.70;99.90
72646;DHT22;60687;53.876;10.674;2023-02-15T15:47:15;4.70;99.90
72646;DHT22;60687;53.876;10.674;2023-02-15T15:57:24;4.70;99.90
72646;DHT22;60687;53.876;10.674;2023-02-15T16:07:30;4.70;99.90
72646;DHT22;60687;53.876;10.674;2023-02-15T16:17:33;4.70;99.90
72646;DHT22;60687;53.876;10.674;2023-02-15T16:27:39;4.70;99.90
72646;DHT22;60687;53.876;10.674;2023-02-15T16:37:43;4.70;99.90
72646;DHT22;60687;53.876;10.674;2023-02-15T16:47:49;4.60;99.90
72646;DHT22;60687;53.876;10.674;2023-02-15T16:57:56;4.60;99.90
72646;DHT22;60687;53.876;10.674;2023-02-15T17:08:14;4.60;99.90
72646;DHT22;60687;53.876;10.674;2023-02-15T17:18:20;4.60;99.90
72646;DHT22;60687;53.876;10.674;2023-02-15T17:28:26;4.50;99.90
72646;DHT22;60687;53.876;10.674;2023-02-15T17:38:30;4.50;99.90
72646;DHT22;60687;53.876;10.674;2023-02-15T17:48:36;4.50;99.90
72646;DHT22;60687;53.876;10.674;2023-02-15T17:58:42;4.40;99.90
72646;DHT22;60687;53.876;10.674;2023-02-15T18:08:46;4.40;99.90
72646;DHT22;60687;53.876;10.674;2023-02-15T18:19:30;4.30;99.90
72646;DHT22;60687;53.876;10.674;2023-02-15T18:29:34;4.30;99.90
72646;DHT22;60687;53.876;10.674;2023-02-15T18:39:38;4.20;99.90
72646;DHT22;60687;53.876;10.674;2023-02-15T18:49:45;4.20;99.90
72646;DHT22;60687;53.876;10.674;2023-02-15T18:59:47;4.20;99.90
72646;DHT22;60687;53.876;10.674;2023-02-15T19:09:53;4.10;99.90
72646;DHT22;60687;53.876;10.674;2023-02-15T19:19:56;4.10;99.90
72646;DHT22;60687;53.876;10.674;2023-02-15T19:30:01;4.00;99.90
72646;DHT22;60687;53.876;10.674;2023-02-15T19:40:17;4.00;99.90
72646;DHT22;60687;53.876;10.674;2023-02-15T19:50:23;3.90;99.90
72646;DHT22;60687;53.876;10.674;2023-02-15T20:00:28;3.90;99.90
72646;DHT22;60687;53.876;10.674;2023-02-15T20:10:33;3.90;99.90
72646;DHT22;60687;53.876;10.674;2023-02-15T20:20:39;3.90;99.90
72646;DHT22;60687;53.876;10.674;2023-02-15T20:30:44;3.80;99.90
72646;DHT22;60687;53.876;10.674;2023-02-15T20:40:47;3.80;99.90
72646;DHT22;60687;53.876;10.674;2023-02-15T20:51:14;3.70;99.90
72646;DHT22;60687;53.876;10.674;2023-02-15T21:01:18;3.60;99.90
72646;DHT22;60687;53.876;10.674;2023-02-15T21:11:22;3.60;99.90
72646;DHT22;60687;53.876;10.674;2023-02-15T21:21:24;3.60;99.90
72646;DHT22;60687;53.876;10.674;2023-02-15T21:31:28;3.60;99.90
72646;DHT22;60687;53.876;10.674;2023-02-15T21:41:31;3.60;99.90
72646;DHT22;60687;53.876;10.674;2023-02-15T21:51:52;3.60;99.90
72646;DHT22;60687;53.876;10.674;2023-02-15T22:02:26;3.50;99.90
72646;DHT22;60687;53.876;10.674;2023-02-15T22:12:32;3.50;99.90
72646;DHT22;60687;53.876;10.674;2023-02-15T22:22:35;3.50;99.90
72646;DHT22;60687;53.876;10.674;2023-02-15T22:32:38;3.40;99.90
72646;DHT22;60687;53.876;10.674;2023-02-15T22:42:43;3.40;99.90
72646;DHT22;60687;53.876;10.674;2023-02-15T22:52:48;3.40;99.90
72646;DHT22;60687;53.876;10.674;2023-02-15T23:02:51;3.30;99.90
72646;DHT22;60687;53.876;10.674;2023-02-15T23:12:58;3.30;99.90
72646;DHT22;60687;53.876;10.674;2023-02-15T23:23:25;3.30;99.90
72646;DHT22;60687;53.876;10.674;2023-02-15T23:33:32;3.10;99.90
72646;DHT22;60687;53.876;10.674;2023-02-15T23:43:35;3.10;99.90
72646;DHT22;60687;53.876;10.674;2023-02-15T23:53:39;3.00;99.90
